Pesotum, IL (61863)

10:46 PM CDT on July 28, 2015 (GMT -0500)
Illini FS Dry Fertilizer Blending Facilty | | Change Station
CLOSE
Current Station
Personal Weather Station
Location: Tuscola, IL
Elevation: 676 ft
Nearby Weather Stations

Elev 676 ft 39.87 °N, 88.29 °W | Updated 1 minute ago

Partly Cloudy
Partly Cloudy
74.3 °F
Feels Like 71 °F
N
1.1
Wind Variable Wind from West

Today
High -- | Low -- °F
--% Chance of Precip.
Yesterday
High -- | Low -- °F
Precip. -- in
5:47 AM 8:10 PM
Waxing Gibbous, 93% visible
Pressure 29.96 in
Visibility 7.0 miles
Clouds Clear
Heat Index 71 °F
Dew Point 74 °F
Humidity 99%
Rainfall 0.07 in
Snow Depth Not available.
UV 0 out of 12
Pollen 5.40 out of 12
Air Quality Not available.
Flu Activity Not available.
METAR KCMI 290253Z 00000KT 7SM CLR 24/23 A2998 RMK AO2 SLP144 T02390228 51016

More Conditions Fewer Conditions

Pressure 29.96 in
Visibility 7.0 miles
Clouds Clear
Heat Index 71 °F
Dew Point 74 °F
Humidity 99%
Rainfall 0.07 in
Snow Depth Not available.
UV 0 out of 12
Pollen 5.40 out of 12
Air Quality Not available.
Flu Activity Not available.
METAR KCMI 290253Z 00000KT 7SM CLR 24/23 A2998 RMK AO2 SLP144 T02390228 51016

More Conditions Fewer Conditions

10-Day Weather Forecast

×

Almanac

Astronomy

Jul. 28, 2015 Rise Set
Actual Time
Civil Twilight
Nautical Twilight
Astronomical Twilight
Moon
Length of Visible Light
Length of Day
Tomorrow will be .
, % of the Moon is Illuminated

Today's Extremes

State Highs State Lows

Community

WunderPhotos

Upload Photos

1,842,025 photos uploaded!

WunderBlogs® & News

Nearby

Air Quality

  Air Quality AQ Index Pollutant
Not available.

Snow Depth

Station Depth Elevation

Earthquake Activity

City Distance Mag. Time & Date
Minimum magnitude displayed is 2.5.

Coastal Water Temperatures

Place Temperature

Stations

Nearby Weather Stations

Station Location Temp. Windchill Dew Point Humidity Wind Precip. Elev Updated Type